Time;durP1;ratioP1;P1;durP2;ratioP2;P2;SDS_P1;SDS_P2;PMS_P1;PMS_P2;Temp;Humidity;BMP_temperature;BMP_pressure;BME280_temperature;BME280_humidity;BME280_pressure;Samples;Min_cycle;Max_cycle;Signal;HPM_P1;HPM_P2
2023/08/06 00:00:55;;;;;;;6.47;5.70;;;16.80;99.90;;;;;;5012810;28;20557;-67
2023/08/06 00:03:22;;;;;;;6.97;5.50;;;16.90;99.90;;;;;;5010256;28;20490;-67
2023/08/06 00:05:49;;;;;;;9.17;6.80;;;16.90;99.90;;;;;;5024887;28;20485;-66
2023/08/06 00:08:15;;;;;;;10.10;7.90;;;16.70;99.90;;;;;;5010923;28;20737;-66
2023/08/06 00:10:42;;;;;;;9.00;6.33;;;16.80;99.90;;;;;;5025106;28;20552;-65
2023/08/06 00:13:09;;;;;;;15.23;10.17;;;16.80;99.90;;;;;;5008190;28;20581;-64
2023/08/06 00:15:38;;;;;;;7.33;6.27;;;16.70;99.90;;;;;;5015875;28;20541;-66
2023/08/06 00:18:04;;;;;;;7.80;6.33;;;16.80;99.90;;;;;;5011792;28;20492;-65
2023/08/06 00:20:31;;;;;;;8.63;6.50;;;16.80;99.90;;;;;;5015105;28;20606;-65
2023/08/06 00:22:59;;;;;;;11.07;7.80;;;16.70;99.90;;;;;;5025700;28;20471;-64
2023/08/06 00:25:26;;;;;;;13.00;6.63;;;16.70;99.90;;;;;;5018467;28;20519;-66
2023/08/06 00:27:53;;;;;;;8.00;6.53;;;16.60;99.90;;;;;;5016715;28;20555;-66
2023/08/06 00:30:20;;;;;;;8.00;6.30;;;16.50;99.90;;;;;;5017849;28;21027;-67
2023/08/06 00:32:48;;;;;;;9.37;7.03;;;16.50;99.90;;;;;;5007404;28;20487;-66
2023/08/06 00:35:16;;;;;;;15.30;9.17;;;16.50;99.90;;;;;;5011596;28;20492;-66
2023/08/06 00:37:43;;;;;;;15.00;7.60;;;16.40;99.90;;;;;;5011885;28;20476;-65
2023/08/06 00:40:10;;;;;;;9.00;7.63;;;16.30;99.90;;;;;;5014968;28;20502;-65
2023/08/06 00:42:36;;;;;;;10.23;6.47;;;16.10;99.90;;;;;;5017920;28;20507;-64
2023/08/06 00:45:04;;;;;;;12.80;7.47;;;16.10;99.90;;;;;;5015539;28;20478;-67
2023/08/06 00:47:31;;;;;;;9.93;7.37;;;16.20;99.90;;;;;;5003458;28;20473;-66
2023/08/06 00:50:00;;;;;;;5.57;4.87;;;16.10;99.90;;;;;;5014284;28;20481;-65
2023/08/06 00:52:27;;;;;;;13.77;6.10;;;16.10;99.90;;;;;;5010667;28;20488;-65
2023/08/06 00:54:54;;;;;;;15.20;6.97;;;16.20;99.90;;;;;;5010478;28;21238;-65
2023/08/06 00:57:25;;;;;;;8.00;6.17;;;16.10;99.90;;;;;;5029866;28;21046;-65
2023/08/06 00:59:52;;;;;;;10.80;6.30;;;16.10;99.90;;;;;;5009792;28;20483;-66
2023/08/06 01:02:19;;;;;;;11.40;6.47;;;16.10;99.90;;;;;;4990125;28;20988;-64
2023/08/06 01:04:47;;;;;;;10.40;7.13;;;16.10;99.90;;;;;;5010056;28;20492;-65
2023/08/06 01:07:29;;;;;;;13.73;8.27;;;16.00;99.90;;;;;;5017363;28;20569;-67
2023/08/06 01:10:11;;;;;;;9.13;5.00;;;16.00;99.90;;;;;;5017824;28;20491;-66
2023/08/06 01:12:46;;;;;;;11.63;6.73;;;16.00;99.90;;;;;;5011625;28;20578;-67
2023/08/06 01:15:18;;;;;;;14.63;8.10;;;16.00;99.90;;;;;;5019819;28;21001;-64
2023/08/06 01:17:46;;;;;;;9.33;6.50;;;16.80;99.90;;;;;;5017083;28;20828;-64
2023/08/06 01:20:13;;;;;;;14.87;9.23;;;16.00;99.90;;;;;;5010407;28;20502;-66
2023/08/06 01:22:41;;;;;;;9.10;6.23;;;16.00;99.90;;;;;;5010422;28;20670;-66
2023/08/06 01:25:09;;;;;;;15.40;8.27;;;16.00;99.90;;;;;;5017600;28;20487;-65
2023/08/06 01:27:46;;;;;;;10.67;5.57;;;16.00;99.90;;;;;;5014400;28;20566;-64
2023/08/06 01:30:17;;;;;;;13.53;8.90;;;15.90;99.90;;;;;;5009737;28;20479;-66
2023/08/06 01:32:46;;;;;;;11.40;6.20;;;15.90;99.90;;;;;;5012746;28;21255;-64
2023/08/06 01:35:16;;;;;;;14.73;7.83;;;15.90;99.90;;;;;;5009146;28;20496;-65
2023/08/06 01:37:45;;;;;;;7.70;5.20;;;15.90;99.90;;;;;;5009122;28;20683;-65
2023/08/06 01:40:13;;;;;;;14.93;7.90;;;15.70;99.90;;;;;;5011368;28;20480;-65
2023/08/06 01:42:40;;;;;;;12.90;6.50;;;15.70;99.90;;;;;;5012269;28;20484;-66
2023/08/06 01:45:08;;;;;;;16.30;8.90;;;15.70;99.90;;;;;;5017707;28;21006;-66
2023/08/06 01:47:36;;;;;;;12.80;5.20;;;15.70;99.90;;;;;;5015774;28;20618;-65
2023/08/06 01:50:03;;;;;;;9.87;5.37;;;15.70;99.90;;;;;;5014601;28;20601;-67
2023/08/06 01:52:30;;;;;;;7.50;4.93;;;15.70;99.90;;;;;;5013742;28;20477;-66
2023/08/06 01:54:58;;;;;;;7.30;5.40;;;15.70;99.90;;;;;;5014749;28;20472;-66
2023/08/06 01:57:25;;;;;;;8.57;5.93;;;15.60;99.90;;;;;;5013089;28;20481;-67
2023/08/06 01:59:52;;;;;;;8.37;5.37;;;15.60;99.90;;;;;;5014514;28;20498;-66
2023/08/06 02:02:19;;;;;;;9.63;7.30;;;15.50;99.90;;;;;;5017440;28;20480;-68
2023/08/06 02:04:46;;;;;;;15.90;7.60;;;15.50;99.90;;;;;;5012434;28;20992;-67
2023/08/06 02:07:13;;;;;;;13.63;9.07;;;15.60;99.90;;;;;;5014586;28;20594;-66
2023/08/06 02:09:40;;;;;;;6.77;4.10;;;15.60;99.90;;;;;;5014330;28;20469;-65
2023/08/06 02:12:09;;;;;;;10.60;5.73;;;15.50;99.90;;;;;;5012551;28;20473;-66
2023/08/06 02:14:36;;;;;;;5.00;4.20;;;15.50;99.90;;;;;;5014174;28;20489;-64
2023/08/06 02:17:03;;;;;;;10.10;6.70;;;15.50;99.90;;;;;;5018954;28;20884;-66
2023/08/06 02:19:29;;;;;;;6.43;4.50;;;15.40;99.90;;;;;;5016189;28;20575;-66
2023/08/06 02:21:57;;;;;;;8.07;5.57;;;15.50;99.90;;;;;;5025819;28;20475;-65
2023/08/06 02:24:23;;;;;;;5.13;4.20;;;15.40;99.90;;;;;;5016302;28;20488;-67
2023/08/06 02:26:51;;;;;;;6.03;4.57;;;15.40;99.90;;;;;;5020267;28;20483;-67
2023/08/06 02:29:19;;;;;;;10.90;6.73;;;15.40;99.90;;;;;;5017938;28;20960;-65
2023/08/06 02:31:46;;;;;;;10.53;5.07;;;15.30;99.90;;;;;;5020052;28;20487;-67
2023/08/06 02:34:13;;;;;;;9.33;6.57;;;15.30;99.90;;;;;;5020337;28;20620;-67
2023/08/06 02:36:40;;;;;;;6.63;4.83;;;15.30;99.90;;;;;;5023021;28;20988;-64
2023/08/06 02:39:07;;;;;;;12.53;8.00;;;15.30;99.90;;;;;;5019007;28;20486;-66
2023/08/06 02:41:34;;;;;;;7.70;4.83;;;15.30;99.90;;;;;;5021937;28;21011;-65
2023/08/06 02:44:00;;;;;;;10.77;5.83;;;15.30;99.90;;;;;;5012469;28;20511;-65
2023/08/06 02:46:29;;;;;;;7.67;5.20;;;15.20;99.90;;;;;;5017386;28;20484;-66
2023/08/06 02:48:56;;;;;;;7.70;5.30;;;15.30;99.90;;;;;;5022658;28;20481;-65
2023/08/06 02:51:22;;;;;;;7.03;4.77;;;15.30;99.90;;;;;;5019627;28;20475;-66
2023/08/06 02:53:50;;;;;;;7.13;5.10;;;15.20;99.90;;;;;;5024492;28;20583;-64
2023/08/06 02:56:17;;;;;;;14.83;6.83;;;15.20;99.90;;;;;;5025287;28;20480;-66
2023/08/06 02:58:43;;;;;;;7.33;5.67;;;15.10;99.90;;;;;;5019918;28;20483;-65
2023/08/06 03:01:10;;;;;;;13.90;9.80;;;15.10;99.90;;;;;;5016633;28;20476;-65
2023/08/06 03:03:38;;;;;;;10.20;4.77;;;15.20;99.90;;;;;;5007345;28;20879;-66
2023/08/06 03:06:05;;;;;;;9.60;6.80;;;15.10;99.90;;;;;;5021118;28;20491;-67
2023/08/06 03:08:32;;;;;;;8.80;5.17;;;15.10;99.90;;;;;;5011428;28;20575;-67
2023/08/06 03:10:59;;;;;;;8.73;5.33;;;15.10;99.90;;;;;;5033609;28;20843;-67
2023/08/06 03:13:27;;;;;;;8.13;4.53;;;15.10;99.90;;;;;;5016417;28;20475;-66
2023/08/06 03:15:55;;;;;;;6.40;4.20;;;15.00;99.90;;;;;;5014407;28;20475;-67
2023/08/06 03:18:22;;;;;;;8.33;5.37;;;15.00;99.90;;;;;;5022365;28;20837;-65
2023/08/06 03:20:50;;;;;;;9.70;5.70;;;14.90;99.90;;;;;;5011519;28;20477;-66
2023/08/06 03:23:17;;;;;;;11.20;6.77;;;14.90;99.90;;;;;;5022203;28;20539;-66
2023/08/06 03:25:44;;;;;;;8.83;4.80;;;14.80;99.90;;;;;;5012839;28;20893;-65
2023/08/06 03:28:11;;;;;;;11.83;8.33;;;14.80;99.90;;;;;;5024438;28;20475;-66
2023/08/06 03:30:38;;;;;;;12.00;5.93;;;14.80;99.90;;;;;;5012651;28;20983;-67
2023/08/06 03:33:05;;;;;;;10.67;7.83;;;16.20;99.90;;;;;;5016621;28;20777;-67
2023/08/06 03:35:32;;;;;;;6.97;4.10;;;14.80;99.90;;;;;;5012024;28;20486;-67
2023/08/06 03:38:00;;;;;;;6.60;4.37;;;14.80;99.90;;;;;;5021337;28;20467;-63
2023/08/06 03:40:27;;;;;;;8.70;4.70;;;14.80;99.90;;;;;;5019486;28;20603;-67
2023/08/06 03:42:54;;;;;;;5.73;4.60;;;14.80;99.90;;;;;;5030931;28;20987;-67
2023/08/06 03:45:21;;;;;;;6.70;4.80;;;14.70;99.90;;;;;;5011396;28;20555;-65
2023/08/06 03:47:48;;;;;;;8.13;4.80;;;14.70;99.90;;;;;;5018131;28;20489;-68
2023/08/06 03:50:15;;;;;;;21.17;7.87;;;14.80;99.90;;;;;;4996230;28;20486;-65
2023/08/06 03:52:42;;;;;;;6.13;4.70;;;14.70;99.90;;;;;;5006707;28;21003;-66
2023/08/06 03:55:10;;;;;;;13.73;8.33;;;14.70;99.90;;;;;;5019495;28;20855;-67
2023/08/06 03:57:37;;;;;;;10.00;5.27;;;14.80;99.90;;;;;;5017229;28;20498;-66
2023/08/06 04:00:04;;;;;;;11.07;6.30;;;14.80;99.90;;;;;;5012488;28;21046;-66
2023/08/06 04:02:32;;;;;;;6.93;5.43;;;14.80;99.90;;;;;;5026695;28;20842;-65
2023/08/06 04:04:59;;;;;;;10.20;5.30;;;14.70;99.90;;;;;;5008497;28;20464;-64
2023/08/06 04:07:26;;;;;;;7.53;5.20;;;14.60;99.90;;;;;;5014218;28;20490;-66
2023/08/06 04:09:56;;;;;;;10.23;5.53;;;14.70;99.90;;;;;;5014290;28;20481;-66
2023/08/06 04:12:24;;;;;;;8.93;5.23;;;14.70;99.90;;;;;;5023164;28;20562;-65
2023/08/06 04:14:52;;;;;;;11.53;5.40;;;14.70;99.90;;;;;;5014649;28;20491;-67
2023/08/06 04:17:21;;;;;;;8.87;6.70;;;14.70;99.90;;;;;;5023199;28;20617;-66
2023/08/06 04:19:48;;;;;;;6.80;4.07;;;14.80;99.90;;;;;;5020410;28;20482;-68
2023/08/06 04:22:15;;;;;;;16.60;9.17;;;14.70;99.90;;;;;;5024710;28;20479;-66
2023/08/06 04:24:43;;;;;;;8.00;5.40;;;14.70;99.90;;;;;;5017891;28;20482;-66
2023/08/06 04:27:10;;;;;;;13.03;8.90;;;14.70;99.90;;;;;;5019359;28;20492;-65
2023/08/06 04:29:39;;;;;;;5.77;4.97;;;14.60;99.90;;;;;;5014427;28;20479;-67
2023/08/06 04:32:07;;;;;;;17.93;9.53;;;14.60;99.90;;;;;;5009336;28;20917;-64
2023/08/06 04:34:35;;;;;;;8.73;5.57;;;14.60;99.90;;;;;;5003553;28;20483;-65
2023/08/06 04:37:02;;;;;;;6.93;4.73;;;14.70;99.90;;;;;;5018913;28;20851;-65
2023/08/06 04:39:29;;;;;;;7.30;4.40;;;14.80;99.90;;;;;;5006447;28;20477;-68
2023/08/06 04:41:57;;;;;;;10.10;5.53;;;14.80;99.90;;;;;;5013303;28;20812;-65
2023/08/06 04:44:24;;;;;;;6.40;4.53;;;14.80;99.90;;;;;;5010528;28;21003;-64
2023/08/06 04:46:52;;;;;;;5.80;4.17;;;14.80;99.90;;;;;;5016820;28;20548;-68
2023/08/06 04:49:24;;;;;;;5.90;4.50;;;14.80;99.90;;;;;;5015423;28;20532;-67
2023/08/06 04:51:51;;;;;;;6.43;5.47;;;14.80;99.90;;;;;;5010183;28;20993;-67
2023/08/06 04:54:19;;;;;;;7.47;5.87;;;14.80;99.90;;;;;;5016671;28;20503;-65
2023/08/06 04:56:46;;;;;;;4.37;3.80;;;14.80;99.90;;;;;;5019193;28;20479;-65
2023/08/06 04:59:12;;;;;;;9.73;6.00;;;14.80;99.90;;;;;;5017640;28;20578;-65
2023/08/06 05:01:39;;;;;;;5.47;4.00;;;14.80;99.90;;;;;;5017582;28;20739;-67
2023/08/06 05:04:07;;;;;;;10.27;6.40;;;14.70;99.90;;;;;;5005048;28;20488;-65
2023/08/06 05:06:34;;;;;;;8.40;3.63;;;14.70;99.90;;;;;;5013823;28;20694;-66
2023/08/06 05:09:01;;;;;;;5.17;4.30;;;14.80;99.90;;;;;;5008880;28;20490;-67
2023/08/06 05:11:28;;;;;;;5.50;4.73;;;14.80;99.90;;;;;;5018189;28;20530;-66
2023/08/06 05:13:55;;;;;;;6.23;5.03;;;14.80;99.90;;;;;;5014443;28;20488;-66
2023/08/06 05:16:22;;;;;;;7.83;4.10;;;14.90;99.90;;;;;;5017230;28;20480;-67
2023/08/06 05:18:49;;;;;;;11.70;6.60;;;14.80;99.90;;;;;;5015199;28;20483;-65
2023/08/06 05:21:17;;;;;;;10.77;6.90;;;14.80;99.90;;;;;;5026079;28;20493;-65
2023/08/06 05:23:44;;;;;;;8.87;5.30;;;14.90;99.90;;;;;;5016406;28;20478;-65
2023/08/06 05:26:11;;;;;;;9.97;7.00;;;14.80;99.90;;;;;;5031566;28;20512;-67
2023/08/06 05:28:37;;;;;;;5.50;4.77;;;14.80;99.90;;;;;;4997926;28;20476;-68
2023/08/06 05:31:05;;;;;;;8.37;6.40;;;14.80;99.90;;;;;;5017496;28;20493;-65
2023/08/06 05:33:31;;;;;;;5.27;4.17;;;14.70;99.90;;;;;;5005575;28;20482;-66
2023/08/06 05:35:58;;;;;;;7.20;5.40;;;14.70;99.90;;;;;;5021938;28;20857;-65
2023/08/06 05:38:27;;;;;;;6.20;4.53;;;15.50;99.90;;;;;;5024797;28;20548;-68
2023/08/06 05:40:55;;;;;;;5.63;4.63;;;14.80;99.90;;;;;;5015348;28;20491;-66
2023/08/06 05:43:22;;;;;;;5.60;4.87;;;14.80;99.90;;;;;;5017418;28;20531;-68
2023/08/06 05:45:51;;;;;;;6.60;5.50;;;14.80;99.90;;;;;;5004404;28;20602;-67
2023/08/06 05:48:18;;;;;;;7.23;5.90;;;14.80;99.90;;;;;;5022174;28;20471;-65
2023/08/06 05:50:44;;;;;;;5.73;4.20;;;14.70;99.90;;;;;;5008474;28;20867;-67
2023/08/06 05:53:11;;;;;;;9.87;7.57;;;14.80;99.90;;;;;;5010922;28;20490;-67
2023/08/06 05:55:41;;;;;;;6.17;4.93;;;14.90;99.90;;;;;;5002803;28;20492;-66
2023/08/06 05:58:08;;;;;;;8.53;6.40;;;14.90;99.90;;;;;;5019807;28;21089;-66
2023/08/06 06:00:35;;;;;;;3.40;2.77;;;15.10;99.90;;;;;;5016513;28;21142;-66
2023/08/06 06:03:02;;;;;;;6.60;5.20;;;14.90;99.90;;;;;;5017770;28;20916;-67
2023/08/06 06:05:29;;;;;;;6.10;4.00;;;14.90;99.90;;;;;;5005861;28;20475;-67
2023/08/06 06:07:56;;;;;;;6.60;4.47;;;15.00;99.90;;;;;;5029472;28;21106;-66
2023/08/06 06:10:23;;;;;;;3.80;3.13;;;15.10;99.90;;;;;;5022521;28;20933;-66
2023/08/06 06:12:51;;;;;;;4.27;3.60;;;15.10;99.90;;;;;;5011676;28;20491;-65
2023/08/06 06:15:18;;;;;;;8.70;5.10;;;15.20;99.90;;;;;;5014544;28;20481;-67
2023/08/06 06:17:45;;;;;;;5.17;3.40;;;15.20;99.90;;;;;;5009638;28;21044;-67
2023/08/06 06:20:12;;;;;;;7.90;5.83;;;15.20;99.90;;;;;;5014689;28;21025;-66
2023/08/06 06:22:39;;;;;;;4.13;3.47;;;15.20;99.90;;;;;;5027964;28;20570;-67
2023/08/06 06:25:07;;;;;;;7.80;6.07;;;15.20;99.90;;;;;;5015393;28;21297;-64
2023/08/06 06:27:34;;;;;;;4.20;3.80;;;15.30;99.90;;;;;;5013221;28;20491;-67
2023/08/06 06:30:02;;;;;;;4.97;4.30;;;15.30;99.90;;;;;;5023365;28;20566;-67
2023/08/06 06:32:29;;;;;;;4.67;3.00;;;15.40;99.90;;;;;;5027941;28;20487;-65
2023/08/06 06:34:56;;;;;;;4.00;3.37;;;15.40;99.90;;;;;;5015296;28;20508;-67
2023/08/06 06:37:23;;;;;;;6.03;3.40;;;15.40;99.90;;;;;;5024738;28;20493;-66
2023/08/06 06:39:50;;;;;;;3.73;2.60;;;15.50;99.90;;;;;;5021166;28;20485;-66
2023/08/06 06:42:17;;;;;;;7.30;4.70;;;15.70;99.90;;;;;;5007075;28;20804;-63
2023/08/06 06:44:43;;;;;;;9.27;4.40;;;15.50;99.90;;;;;;5028762;28;20510;-67
2023/08/06 06:47:12;;;;;;;8.63;6.20;;;15.50;99.90;;;;;;5024100;28;20622;-65
2023/08/06 06:49:38;;;;;;;3.90;2.63;;;15.50;99.90;;;;;;5018420;28;20486;-65
2023/08/06 06:52:06;;;;;;;6.77;5.20;;;15.50;99.90;;;;;;5026591;28;20472;-62
2023/08/06 06:54:33;;;;;;;5.70;4.40;;;15.60;99.90;;;;;;5015885;28;20487;-65
2023/08/06 06:57:00;;;;;;;4.60;3.77;;;15.70;99.90;;;;;;5019814;28;20964;-66
2023/08/06 06:59:27;;;;;;;3.47;2.90;;;15.60;99.90;;;;;;5022575;28;20819;-64
2023/08/06 07:01:54;;;;;;;3.37;3.07;;;15.60;99.90;;;;;;5021440;28;20494;-66
2023/08/06 07:04:22;;;;;;;4.73;4.17;;;15.70;99.90;;;;;;5020430;28;20715;-65
2023/08/06 07:06:49;;;;;;;4.53;3.90;;;15.70;99.90;;;;;;5019973;28;20580;-66
2023/08/06 07:09:15;;;;;;;7.03;5.63;;;15.70;99.90;;;;;;5022195;28;21017;-67
2023/08/06 07:11:43;;;;;;;3.27;2.83;;;15.90;99.90;;;;;;5031454;28;20569;-66
2023/08/06 07:14:10;;;;;;;11.23;7.33;;;15.90;99.90;;;;;;5023154;28;20488;-68
2023/08/06 07:16:37;;;;;;;4.03;3.63;;;15.90;99.90;;;;;;5021184;28;20508;-65
2023/08/06 07:19:05;;;;;;;6.73;4.47;;;15.80;99.90;;;;;;5021769;28;20585;-66
2023/08/06 07:21:34;;;;;;;3.23;2.93;;;15.90;99.90;;;;;;5018871;28;20475;-64
2023/08/06 07:24:00;;;;;;;5.80;4.20;;;15.80;99.90;;;;;;5018648;28;20831;-65
2023/08/06 07:26:27;;;;;;;2.73;2.47;;;15.70;99.90;;;;;;5016910;28;20485;-63
2023/08/06 07:28:54;;;;;;;4.63;3.97;;;15.70;99.90;;;;;;5020900;28;20472;-66
2023/08/06 07:31:21;;;;;;;3.43;2.97;;;15.70;99.90;;;;;;5011482;28;20803;-65
2023/08/06 07:33:48;;;;;;;3.27;2.83;;;15.80;99.90;;;;;;5020293;28;20494;-65
2023/08/06 07:36:15;;;;;;;7.60;6.30;;;15.90;99.90;;;;;;5012521;28;20483;-64
2023/08/06 07:38:55;;;;;;;3.53;2.90;;;15.90;99.90;;;;;;5033140;28;20495;-63
2023/08/06 07:41:22;;;;;;;5.03;3.50;;;16.00;99.90;;;;;;5017122;28;20554;-63
2023/08/06 07:43:49;;;;;;;3.47;3.03;;;16.00;99.90;;;;;;5010494;28;20568;-66
2023/08/06 07:46:16;;;;;;;6.20;5.13;;;16.20;99.90;;;;;;5010298;28;20505;-66
2023/08/06 07:48:43;;;;;;;4.23;3.50;;;16.10;99.90;;;;;;5025148;28;21019;-65
2023/08/06 07:51:10;;;;;;;8.00;6.40;;;16.20;99.90;;;;;;5014675;28;20476;-67
2023/08/06 07:53:37;;;;;;;3.47;2.90;;;16.30;99.90;;;;;;5012472;28;20878;-64
2023/08/06 07:56:05;;;;;;;5.47;4.37;;;16.40;99.90;;;;;;5009829;28;20541;-68
2023/08/06 07:58:32;;;;;;;4.20;3.70;;;16.30;99.90;;;;;;5019278;28;20482;-65
2023/08/06 08:00:59;;;;;;;4.37;3.93;;;16.30;99.90;;;;;;5009676;28;20807;-65
2023/08/06 08:03:26;;;;;;;3.90;3.50;;;16.20;99.90;;;;;;5015438;28;20498;-64
2023/08/06 08:05:57;;;;;;;3.60;3.27;;;16.20;99.90;;;;;;5021606;28;20485;-63
2023/08/06 08:08:24;;;;;;;4.40;4.00;;;16.20;99.90;;;;;;5020474;28;20711;-65
2023/08/06 08:10:51;;;;;;;3.23;2.80;;;16.10;99.90;;;;;;5011959;28;20657;-66
2023/08/06 08:13:19;;;;;;;6.90;5.97;;;16.20;99.90;;;;;;5035881;28;20487;-65
2023/08/06 08:15:46;;;;;;;3.80;3.40;;;16.10;99.90;;;;;;5023353;28;20579;-68
2023/08/06 08:18:13;;;;;;;6.13;5.10;;;16.40;99.90;;;;;;5020132;28;20475;-68
2023/08/06 08:20:40;;;;;;;4.93;4.40;;;16.50;99.90;;;;;;5020990;28;20482;-65
2023/08/06 08:23:07;;;;;;;7.17;6.10;;;16.60;99.90;;;;;;5018970;28;20557;-68
2023/08/06 08:25:34;;;;;;;4.70;4.20;;;16.60;99.90;;;;;;5025783;28;20491;-68
2023/08/06 08:28:00;;;;;;;4.47;3.60;;;16.70;99.90;;;;;;5024039;28;20888;-66
2023/08/06 08:30:29;;;;;;;3.13;2.73;;;16.80;99.90;;;;;;5021889;28;20485;-68
2023/08/06 08:32:56;;;;;;;5.00;3.20;;;16.80;99.90;;;;;;5021270;28;20595;-66
2023/08/06 08:35:22;;;;;;;3.50;3.20;;;17.00;99.90;;;;;;5017017;28;20590;-68
2023/08/06 08:37:50;;;;;;;3.37;3.00;;;16.60;99.90;;;;;;5021797;28;20484;-67
2023/08/06 08:40:17;;;;;;;4.67;3.70;;;16.50;99.90;;;;;;5019411;28;20476;-65
2023/08/06 08:42:44;;;;;;;7.03;5.50;;;16.50;99.90;;;;;;5021854;28;20812;-66
2023/08/06 08:45:14;;;;;;;6.90;5.37;;;16.50;99.90;;;;;;5018386;28;21004;-67
2023/08/06 08:47:43;;;;;;;4.60;4.10;;;16.40;99.90;;;;;;5009784;28;20476;-65
2023/08/06 08:50:13;;;;;;;8.00;6.20;;;16.40;99.90;;;;;;5009265;28;20913;-65
2023/08/06 08:52:41;;;;;;;5.47;4.20;;;16.40;99.90;;;;;;5020241;28;20534;-65
2023/08/06 08:55:09;;;;;;;10.10;6.93;;;16.30;99.90;;;;;;5015001;28;21157;-67
2023/08/06 08:57:37;;;;;;;4.50;3.97;;;16.20;99.90;;;;;;5020359;28;20988;-65
2023/08/06 09:00:04;;;;;;;6.87;5.20;;;16.10;99.90;;;;;;5007805;28;21012;-65
2023/08/06 09:02:33;;;;;;;5.80;3.37;;;15.90;99.90;;;;;;5026323;28;20484;-66
2023/08/06 09:05:02;;;;;;;5.03;4.23;;;15.90;99.90;;;;;;5005241;28;21006;-65
2023/08/06 09:07:34;;;;;;;5.70;4.20;;;16.00;99.90;;;;;;5018635;28;20908;-66
2023/08/06 09:10:04;;;;;;;6.77;4.63;;;15.90;99.90;;;;;;5022437;28;20478;-65
2023/08/06 09:12:31;;;;;;;4.00;3.57;;;15.80;99.90;;;;;;5013626;28;20848;-65
2023/08/06 09:14:58;;;;;;;6.20;4.87;;;15.90;99.90;;;;;;5002141;28;21117;-65
2023/08/06 09:17:25;;;;;;;6.10;4.27;;;15.90;99.90;;;;;;5024765;28;20562;-67
2023/08/06 09:19:52;;;;;;;9.63;7.13;;;15.80;99.90;;;;;;5029494;28;20498;-63
2023/08/06 09:22:20;;;;;;;8.90;6.20;;;15.80;99.90;;;;;;5016360;28;20485;-66
2023/08/06 09:24:47;;;;;;;9.27;6.33;;;15.80;99.90;;;;;;5022327;28;20969;-65
2023/08/06 09:27:15;;;;;;;10.03;7.47;;;15.80;99.90;;;;;;5016778;28;20573;-66
2023/08/06 09:29:44;;;;;;;8.90;6.40;;;15.80;99.90;;;;;;5015661;28;20478;-67
2023/08/06 09:32:12;;;;;;;10.30;7.10;;;15.90;99.90;;;;;;5028882;28;20518;-66
2023/08/06 09:34:41;;;;;;;6.20;4.10;;;15.90;99.90;;;;;;5018961;28;20474;-66
2023/08/06 09:37:10;;;;;;;9.43;7.43;;;15.90;99.90;;;;;;5017220;28;20459;-66
2023/08/06 09:39:40;;;;;;;6.43;5.67;;;16.00;99.90;;;;;;5010626;28;20567;-65
2023/08/06 09:42:07;;;;;;;8.80;7.13;;;16.00;99.90;;;;;;5032728;28;20476;-67
2023/08/06 09:44:34;;;;;;;20.53;5.47;;;15.90;99.90;;;;;;5020027;28;20571;-66
2023/08/06 09:47:04;;;;;;;8.20;4.73;;;15.90;99.90;;;;;;5014469;28;20491;-65
2023/08/06 09:49:45;;;;;;;5.13;3.87;;;15.90;99.90;;;;;;5020446;28;20570;-67
2023/08/06 09:52:15;;;;;;;13.00;7.90;;;15.90;99.90;;;;;;5018920;28;20488;-68
2023/08/06 09:54:45;;;;;;;7.07;5.03;;;16.00;99.90;;;;;;5004716;28;20485;-68
2023/08/06 09:57:13;;;;;;;7.73;6.57;;;16.10;99.90;;;;;;5006847;28;20622;-68
2023/08/06 09:59:43;;;;;;;5.83;4.60;;;16.20;99.90;;;;;;5018514;28;20588;-66
2023/08/06 10:02:14;;;;;;;8.63;6.40;;;16.30;99.90;;;;;;5018680;28;20456;-66
2023/08/06 10:04:42;;;;;;;6.40;4.67;;;16.40;99.90;;;;;;5021576;28;20566;-66
2023/08/06 10:07:09;;;;;;;13.50;8.90;;;16.50;99.90;;;;;;5016835;28;20576;-66
2023/08/06 10:09:36;;;;;;;8.47;6.10;;;16.40;99.90;;;;;;5021165;28;20479;-67
2023/08/06 10:12:05;;;;;;;7.10;5.30;;;16.50;99.90;;;;;;5020867;28;20511;-66
2023/08/06 10:14:36;;;;;;;13.10;5.67;;;16.50;99.90;;;;;;5029312;28;20448;-67
2023/08/06 10:17:03;;;;;;;8.53;5.83;;;16.50;99.90;;;;;;5019386;28;20930;-66
2023/08/06 10:19:32;;;;;;;6.10;4.10;;;16.40;99.90;;;;;;5020267;28;20483;-66
2023/08/06 10:22:13;;;;;;;4.70;4.20;;;16.60;99.90;;;;;;5019417;28;20562;-66
2023/08/06 10:24:50;;;;;;;11.07;5.37;;;16.60;99.90;;;;;;5019098;28;21104;-66
2023/08/06 10:27:23;;;;;;;11.60;7.07;;;16.60;99.90;;;;;;5020023;28;20472;-66
2023/08/06 10:29:50;;;;;;;6.57;4.27;;;16.70;99.90;;;;;;5012450;28;21195;-64
2023/08/06 10:32:18;;;;;;;8.30;6.10;;;16.60;99.90;;;;;;5023811;28;20450;-66
2023/08/06 10:34:57;;;;;;;5.87;5.13;;;16.70;99.90;;;;;;5015342;28;20480;-67
2023/08/06 10:37:24;;;;;;;8.00;5.23;;;16.70;99.90;;;;;;5010690;28;20482;-65
2023/08/06 10:39:52;;;;;;;6.37;5.13;;;16.80;99.90;;;;;;5014013;28;20476;-67
2023/08/06 10:42:30;;;;;;;7.10;6.13;;;17.00;99.90;;;;;;5015884;28;20562;-66
2023/08/06 10:45:13;;;;;;;8.40;4.97;;;17.00;99.90;;;;;;5003476;28;20474;-67
2023/08/06 10:47:40;;;;;;;7.30;4.70;;;16.80;99.90;;;;;;5004365;28;20771;-66
2023/08/06 10:50:08;;;;;;;9.60;7.53;;;16.90;99.90;;;;;;5029797;28;20489;-65
2023/08/06 10:52:35;;;;;;;8.17;6.20;;;16.80;99.90;;;;;;5012570;28;20586;-67
2023/08/06 10:55:02;;;;;;;8.77;6.77;;;16.80;99.90;;;;;;5012982;28;21200;-67
2023/08/06 10:57:30;;;;;;;8.10;5.23;;;16.70;99.90;;;;;;5025497;28;21234;-66
2023/08/06 10:59:57;;;;;;;7.13;5.60;;;16.80;99.90;;;;;;5014153;28;20938;-66
2023/08/06 11:02:24;;;;;;;7.07;5.13;;;16.70;99.90;;;;;;5009942;28;20484;-63
2023/08/06 11:04:52;;;;;;;7.73;6.60;;;16.70;99.90;;;;;;5034675;28;20829;-67
2023/08/06 11:07:18;;;;;;;8.47;7.07;;;16.80;99.90;;;;;;5005612;28;20559;-67
2023/08/06 11:09:45;;;;;;;10.10;5.97;;;16.90;99.90;;;;;;5029923;28;20840;-65
2023/08/06 11:12:12;;;;;;;16.60;7.67;;;17.10;99.90;;;;;;5015613;28;20480;-66
2023/08/06 11:14:40;;;;;;;8.43;5.20;;;17.30;99.90;;;;;;5004734;28;20577;-66
2023/08/06 11:17:07;;;;;;;9.33;7.33;;;17.60;99.90;;;;;;5032822;28;20587;-66
2023/08/06 11:19:35;;;;;;;7.60;5.37;;;18.00;99.90;;;;;;5025231;28;20972;-65
2023/08/06 11:22:02;;;;;;;7.77;5.57;;;18.20;99.90;;;;;;5021064;28;20504;-66
2023/08/06 11:24:29;;;;;;;6.30;4.60;;;18.30;99.90;;;;;;5013370;28;20967;-66
2023/08/06 11:26:56;;;;;;;7.97;5.47;;;18.40;99.90;;;;;;5018729;28;21051;-64
2023/08/06 11:29:24;;;;;;;5.40;4.17;;;18.30;99.90;;;;;;5014910;28;21281;-66
2023/08/06 11:31:52;;;;;;;7.43;5.80;;;18.10;99.90;;;;;;5019682;28;20491;-66
2023/08/06 11:34:19;;;;;;;4.60;3.60;;;17.90;99.90;;;;;;5019571;28;20483;-66
2023/08/06 11:36:46;;;;;;;6.30;4.90;;;17.60;99.90;;;;;;5014857;28;20472;-67
2023/08/06 11:39:13;;;;;;;9.93;7.57;;;17.40;99.90;;;;;;5015235;28;20602;-65
2023/08/06 11:41:40;;;;;;;6.60;5.30;;;17.40;99.90;;;;;;5014798;28;20536;-66
2023/08/06 11:44:11;;;;;;;8.83;6.63;;;17.30;99.90;;;;;;5021344;28;20852;-65
2023/08/06 11:46:56;;;;;;;7.40;3.40;;;17.00;99.90;;;;;;5013364;28;20485;-68
2023/08/06 11:49:39;;;;;;;3.90;3.57;;;16.90;99.90;;;;;;5009539;28;20489;-67
2023/08/06 11:52:20;;;;;;;7.57;5.60;;;17.00;99.90;;;;;;5027384;28;20577;-67
2023/08/06 11:54:48;;;;;;;4.80;4.30;;;17.00;99.90;;;;;;5032595;28;21066;-66
2023/08/06 11:57:17;;;;;;;9.03;7.07;;;16.90;99.90;;;;;;5033707;28;20562;-67
2023/08/06 11:59:44;;;;;;;4.53;4.00;;;16.80;99.90;;;;;;5017993;28;22061;-67
2023/08/06 12:02:13;;;;;;;8.50;7.20;;;16.80;99.90;;;;;;5031029;28;20981;-67
2023/08/06 12:05:02;;;;;;;4.17;3.77;;;16.70;99.90;;;;;;5016942;28;20485;-66
2023/08/06 12:07:30;;;;;;;7.53;6.27;;;16.80;99.90;;;;;;5005723;28;20809;-66
2023/08/06 12:09:57;;;;;;;7.87;5.83;;;16.90;99.90;;;;;;5022858;28;20465;-67
2023/08/06 12:12:24;;;;;;;4.67;3.43;;;17.10;99.90;;;;;;5013618;28;20472;-67
2023/08/06 12:14:51;;;;;;;5.43;4.90;;;17.40;99.90;;;;;;5007607;28;20732;-66
2023/08/06 12:17:19;;;;;;;6.57;5.97;;;17.70;99.90;;;;;;5027099;28;20935;-67
2023/08/06 12:19:47;;;;;;;5.30;4.47;;;18.00;99.90;;;;;;5002825;28;20938;-66
2023/08/06 12:22:14;;;;;;;8.90;5.83;;;18.20;99.90;;;;;;5018673;28;20490;-67
2023/08/06 12:24:42;;;;;;;5.83;5.27;;;18.10;99.90;;;;;;5013679;28;20475;-67
2023/08/06 12:27:09;;;;;;;9.10;7.17;;;18.20;99.90;;;;;;5005946;28;20498;-66
2023/08/06 12:29:36;;;;;;;6.67;4.30;;;18.10;99.90;;;;;;5020737;28;20480;-66
2023/08/06 12:32:03;;;;;;;6.57;5.80;;;18.00;99.90;;;;;;5020117;28;20810;-66
2023/08/06 12:34:32;;;;;;;4.37;3.70;;;17.80;99.90;;;;;;5011064;28;20770;-65
2023/08/06 12:36:59;;;;;;;8.20;5.50;;;17.70;99.90;;;;;;5000360;28;20825;-68
2023/08/06 12:39:28;;;;;;;5.90;4.13;;;17.30;99.90;;;;;;5020520;28;20737;-66
2023/08/06 12:41:57;;;;;;;5.13;4.57;;;17.30;99.90;;;;;;4982066;28;21037;-66
2023/08/06 12:44:24;;;;;;;5.10;4.57;;;17.20;99.90;;;;;;5009268;28;20475;-66
2023/08/06 12:46:51;;;;;;;8.90;5.17;;;17.30;99.90;;;;;;5001275;28;20560;-65
2023/08/06 12:49:18;;;;;;;4.50;4.10;;;17.50;99.90;;;;;;5005698;28;20480;-66